sensor_id;sensor_type;location;lat;lon;timestamp;temperature;humidity
16134;DHT22;8172;45.018;5.972;2023-02-28T00:00:38;-0.90;66.90
16134;DHT22;8172;45.018;5.972;2023-02-28T00:05:45;-0.80;67.00
16134;DHT22;8172;45.018;5.972;2023-02-28T00:10:52;-0.70;67.10
16134;DHT22;8172;45.018;5.972;2023-02-28T00:16:01;-0.70;67.10
16134;DHT22;8172;45.018;5.972;2023-02-28T00:21:08;-0.60;67.20
16134;DHT22;8172;45.018;5.972;2023-02-28T00:26:15;-0.50;67.10
16134;DHT22;8172;45.018;5.972;2023-02-28T00:31:24;-0.50;67.50
16134;DHT22;8172;45.018;5.972;2023-02-28T00:36:31;-0.50;67.50
16134;DHT22;8172;45.018;5.972;2023-02-28T00:41:40;-0.40;67.50
16134;DHT22;8172;45.018;5.972;2023-02-28T00:46:47;-0.40;67.60
16134;DHT22;8172;45.018;5.972;2023-02-28T00:51:55;-0.40;67.60
16134;DHT22;8172;45.018;5.972;2023-02-28T00:57:03;-0.40;67.60
16134;DHT22;8172;45.018;5.972;2023-02-28T01:02:10;-0.30;67.60
16134;DHT22;8172;45.018;5.972;2023-02-28T01:07:17;-0.30;67.50
16134;DHT22;8172;45.018;5.972;2023-02-28T01:12:24;-0.30;67.50
16134;DHT22;8172;45.018;5.972;2023-02-28T01:17:33;-0.30;67.50
16134;DHT22;8172;45.018;5.972;2023-02-28T01:22:40;-0.30;67.60
16134;DHT22;8172;45.018;5.972;2023-02-28T01:27:47;-0.30;67.50
16134;DHT22;8172;45.018;5.972;2023-02-28T01:32:53;-0.30;67.50
16134;DHT22;8172;45.018;5.972;2023-02-28T01:38:03;-0.30;67.50
16134;DHT22;8172;45.018;5.972;2023-02-28T01:43:19;-0.40;67.60
16134;DHT22;8172;45.018;5.972;2023-02-28T01:48:26;-0.30;67.70
16134;DHT22;8172;45.018;5.972;2023-02-28T01:53:37;-0.30;67.80
16134;DHT22;8172;45.018;5.972;2023-02-28T01:58:43;-0.30;67.80
16134;DHT22;8172;45.018;5.972;2023-02-28T02:03:53;-0.40;67.70
16134;DHT22;8172;45.018;5.972;2023-02-28T02:09:02;-0.30;67.70
16134;DHT22;8172;45.018;5.972;2023-02-28T02:29:55;-0.50;67.50
16134;DHT22;8172;45.018;5.972;2023-02-28T02:34:50;-0.50;67.50
16134;DHT22;8172;45.018;5.972;2023-02-28T02:45:06;-0.60;67.70
16134;DHT22;8172;45.018;5.972;2023-02-28T02:50:17;-0.60;67.80
16134;DHT22;8172;45.018;5.972;2023-02-28T02:55:23;-0.60;67.80
16134;DHT22;8172;45.018;5.972;2023-02-28T03:00:33;-0.60;68.00
16134;DHT22;8172;45.018;5.972;2023-02-28T03:05:42;-0.60;68.00
16134;DHT22;8172;45.018;5.972;2023-02-28T03:10:52;-0.50;68.00
16134;DHT22;8172;45.018;5.972;2023-02-28T03:26:20;-0.50;68.10
16134;DHT22;8172;45.018;5.972;2023-02-28T03:36:41;-0.50;68.10
16134;DHT22;8172;45.018;5.972;2023-02-28T03:47:02;-0.50;68.30
16134;DHT22;8172;45.018;5.972;2023-02-28T03:52:08;-0.50;68.30
16134;DHT22;8172;45.018;5.972;2023-02-28T04:02:24;-0.60;68.20
16134;DHT22;8172;45.018;5.972;2023-02-28T04:07:31;-0.70;68.20
16134;DHT22;8172;45.018;5.972;2023-02-28T04:12:38;-0.80;68.40
16134;DHT22;8172;45.018;5.972;2023-02-28T04:17:45;-0.80;68.10
16134;DHT22;8172;45.018;5.972;2023-02-28T04:22:52;-0.90;68.40
16134;DHT22;8172;45.018;5.972;2023-02-28T04:27:59;-1.00;68.50
16134;DHT22;8172;45.018;5.972;2023-02-28T04:33:06;-1.00;68.50
16134;DHT22;8172;45.018;5.972;2023-02-28T04:38:13;-0.90;68.50
16134;DHT22;8172;45.018;5.972;2023-02-28T04:43:20;-0.90;68.40
16134;DHT22;8172;45.018;5.972;2023-02-28T04:48:28;-0.90;68.40
16134;DHT22;8172;45.018;5.972;2023-02-28T04:53:37;-0.90;68.10
16134;DHT22;8172;45.018;5.972;2023-02-28T04:58:44;-0.90;68.10
16134;DHT22;8172;45.018;5.972;2023-02-28T05:03:53;-0.90;68.10
16134;DHT22;8172;45.018;5.972;2023-02-28T05:09:01;-0.90;68.10
16134;DHT22;8172;45.018;5.972;2023-02-28T05:14:10;-0.90;68.10
16134;DHT22;8172;45.018;5.972;2023-02-28T05:19:17;-0.90;68.30
16134;DHT22;8172;45.018;5.972;2023-02-28T05:24:25;-0.90;68.30
16134;DHT22;8172;45.018;5.972;2023-02-28T05:29:31;-0.90;68.40
16134;DHT22;8172;45.018;5.972;2023-02-28T05:34:39;-0.80;68.50
16134;DHT22;8172;45.018;5.972;2023-02-28T05:39:46;-0.90;68.60
16134;DHT22;8172;45.018;5.972;2023-02-28T05:44:53;-0.90;68.60
16134;DHT22;8172;45.018;5.972;2023-02-28T05:50:00;-0.90;68.50
16134;DHT22;8172;45.018;5.972;2023-02-28T05:55:07;-0.90;68.40
16134;DHT22;8172;45.018;5.972;2023-02-28T06:00:15;-0.90;68.40
16134;DHT22;8172;45.018;5.972;2023-02-28T06:05:23;-0.90;68.50
16134;DHT22;8172;45.018;5.972;2023-02-28T06:10:30;-0.90;68.40
16134;DHT22;8172;45.018;5.972;2023-02-28T06:15:38;-1.00;68.40
16134;DHT22;8172;45.018;5.972;2023-02-28T06:20:44;-1.00;68.40
16134;DHT22;8172;45.018;5.972;2023-02-28T06:25:54;-1.10;68.50
16134;DHT22;8172;45.018;5.972;2023-02-28T06:31:08;-1.10;68.50
16134;DHT22;8172;45.018;5.972;2023-02-28T06:36:14;-1.10;68.40
16134;DHT22;8172;45.018;5.972;2023-02-28T06:41:23;-1.20;68.10
16134;DHT22;8172;45.018;5.972;2023-02-28T06:46:30;-1.20;68.00
16134;DHT22;8172;45.018;5.972;2023-02-28T06:51:40;-1.20;68.20
16134;DHT22;8172;45.018;5.972;2023-02-28T06:56:47;-1.20;68.00
16134;DHT22;8172;45.018;5.972;2023-02-28T07:01:54;-1.30;67.70
16134;DHT22;8172;45.018;5.972;2023-02-28T07:07:01;-1.40;67.80
16134;DHT22;8172;45.018;5.972;2023-02-28T07:12:08;-1.50;67.90
16134;DHT22;8172;45.018;5.972;2023-02-28T07:17:15;-1.50;68.00
16134;DHT22;8172;45.018;5.972;2023-02-28T07:22:22;-1.40;68.00
16134;DHT22;8172;45.018;5.972;2023-02-28T07:27:30;-1.40;68.00
16134;DHT22;8172;45.018;5.972;2023-02-28T07:32:37;-1.40;68.10
16134;DHT22;8172;45.018;5.972;2023-02-28T07:37:44;-1.30;68.30
16134;DHT22;8172;45.018;5.972;2023-02-28T07:42:53;-1.30;68.40
16134;DHT22;8172;45.018;5.972;2023-02-28T07:48:00;-1.30;68.50
16134;DHT22;8172;45.018;5.972;2023-02-28T07:53:08;-1.30;68.70
16134;DHT22;8172;45.018;5.972;2023-02-28T07:58:15;-1.20;68.90
16134;DHT22;8172;45.018;5.972;2023-02-28T08:03:23;-1.20;69.10
16134;DHT22;8172;45.018;5.972;2023-02-28T08:08:31;-1.10;69.10
16134;DHT22;8172;45.018;5.972;2023-02-28T08:13:38;-1.10;69.10
16134;DHT22;8172;45.018;5.972;2023-02-28T08:18:45;-1.10;69.20
16134;DHT22;8172;45.018;5.972;2023-02-28T08:23:52;-1.00;69.30
16134;DHT22;8172;45.018;5.972;2023-02-28T08:28:59;-1.00;69.40
16134;DHT22;8172;45.018;5.972;2023-02-28T08:34:08;-1.00;69.60
16134;DHT22;8172;45.018;5.972;2023-02-28T08:39:15;-1.00;69.90
16134;DHT22;8172;45.018;5.972;2023-02-28T08:44:22;-1.00;70.00
16134;DHT22;8172;45.018;5.972;2023-02-28T08:49:29;-0.90;70.10
16134;DHT22;8172;45.018;5.972;2023-02-28T08:54:36;-0.80;70.40
16134;DHT22;8172;45.018;5.972;2023-02-28T08:59:43;-0.70;70.40
16134;DHT22;8172;45.018;5.972;2023-02-28T09:04:50;-0.70;70.30
16134;DHT22;8172;45.018;5.972;2023-02-28T09:09:57;-0.80;70.40
16134;DHT22;8172;45.018;5.972;2023-02-28T09:15:04;-0.80;70.50
16134;DHT22;8172;45.018;5.972;2023-02-28T09:20:12;-0.80;70.60
16134;DHT22;8172;45.018;5.972;2023-02-28T09:25:19;-0.80;70.70
16134;DHT22;8172;45.018;5.972;2023-02-28T09:30:26;-0.80;70.80
16134;DHT22;8172;45.018;5.972;2023-02-28T09:35:33;-0.80;70.90
16134;DHT22;8172;45.018;5.972;2023-02-28T09:45:52;-0.70;71.20
16134;DHT22;8172;45.018;5.972;2023-02-28T09:51:03;-0.60;70.90
16134;DHT22;8172;45.018;5.972;2023-02-28T09:56:15;-0.60;70.90
16134;DHT22;8172;45.018;5.972;2023-02-28T10:06:29;-0.40;71.00
16134;DHT22;8172;45.018;5.972;2023-02-28T10:11:37;-0.30;71.00
16134;DHT22;8172;45.018;5.972;2023-02-28T10:16:48;-0.30;70.80
16134;DHT22;8172;45.018;5.972;2023-02-28T10:21:59;-0.20;71.20
16134;DHT22;8172;45.018;5.972;2023-02-28T10:32:18;0.10;71.20
16134;DHT22;8172;45.018;5.972;2023-02-28T10:37:26;0.20;71.10
16134;DHT22;8172;45.018;5.972;2023-02-28T10:42:33;0.40;70.90
16134;DHT22;8172;45.018;5.972;2023-02-28T10:52:51;0.70;71.20
16134;DHT22;8172;45.018;5.972;2023-02-28T10:57:59;0.90;71.00
16134;DHT22;8172;45.018;5.972;2023-02-28T11:03:22;1.20;70.90
16134;DHT22;8172;45.018;5.972;2023-02-28T11:08:17;1.40;70.30
16134;DHT22;8172;45.018;5.972;2023-02-28T11:13:28;1.70;70.10
16134;DHT22;8172;45.018;5.972;2023-02-28T11:23:42;2.20;69.50
16134;DHT22;8172;45.018;5.972;2023-02-28T11:28:51;2.50;69.30
16134;DHT22;8172;45.018;5.972;2023-02-28T11:33:59;2.70;68.40
16134;DHT22;8172;45.018;5.972;2023-02-28T11:39:10;2.80;68.50
16134;DHT22;8172;45.018;5.972;2023-02-28T11:49:29;3.10;68.60
16134;DHT22;8172;45.018;5.972;2023-02-28T11:54:44;3.30;68.60
16134;DHT22;8172;45.018;5.972;2023-02-28T11:59:48;3.50;67.90
16134;DHT22;8172;45.018;5.972;2023-02-28T12:10:05;3.60;67.40
16134;DHT22;8172;45.018;5.972;2023-02-28T12:30:39;3.30;67.70
16134;DHT22;8172;45.018;5.972;2023-02-28T12:35:51;3.10;67.60
16134;DHT22;8172;45.018;5.972;2023-02-28T12:41:00;2.90;68.00
16134;DHT22;8172;45.018;5.972;2023-02-28T12:51:17;2.90;68.30
16134;DHT22;8172;45.018;5.972;2023-02-28T13:11:53;3.20;68.50
16134;DHT22;8172;45.018;5.972;2023-02-28T13:27:22;3.30;68.40
16134;DHT22;8172;45.018;5.972;2023-02-28T13:32:32;3.30;68.30
16134;DHT22;8172;45.018;5.972;2023-02-28T13:37:42;3.20;68.20
16134;DHT22;8172;45.018;5.972;2023-02-28T13:42:50;3.20;68.50
16134;DHT22;8172;45.018;5.972;2023-02-28T13:48:00;3.10;68.40
16134;DHT22;8172;45.018;5.972;2023-02-28T14:03:30;3.20;68.60
16134;DHT22;8172;45.018;5.972;2023-02-28T14:08:35;3.20;68.70
16134;DHT22;8172;45.018;5.972;2023-02-28T14:13:43;3.20;68.60
16134;DHT22;8172;45.018;5.972;2023-02-28T14:39:26;3.10;68.10
16134;DHT22;8172;45.018;5.972;2023-02-28T14:44:36;2.90;67.90
16134;DHT22;8172;45.018;5.972;2023-02-28T14:49:45;2.80;67.80
16134;DHT22;8172;45.018;5.972;2023-02-28T14:54:54;2.60;68.10
16134;DHT22;8172;45.018;5.972;2023-02-28T15:00:09;2.50;68.30
16134;DHT22;8172;45.018;5.972;2023-02-28T15:20:42;2.20;69.10
16134;DHT22;8172;45.018;5.972;2023-02-28T15:25:51;2.20;69.40
16134;DHT22;8172;45.018;5.972;2023-02-28T15:31:02;2.20;69.30
16134;DHT22;8172;45.018;5.972;2023-02-28T15:46:28;2.20;69.20
16134;DHT22;8172;45.018;5.972;2023-02-28T15:51:36;2.10;69.10
16134;DHT22;8172;45.018;5.972;2023-02-28T15:56:46;2.00;69.10
16134;DHT22;8172;45.018;5.972;2023-02-28T16:07:05;1.80;69.30
16134;DHT22;8172;45.018;5.972;2023-02-28T16:12:12;1.60;69.40
16134;DHT22;8172;45.018;5.972;2023-02-28T16:17:22;1.60;69.70
16134;DHT22;8172;45.018;5.972;2023-02-28T16:22:29;1.60;69.70
16134;DHT22;8172;45.018;5.972;2023-02-28T16:27:37;1.50;69.70
16134;DHT22;8172;45.018;5.972;2023-02-28T16:32:45;1.40;69.70
16134;DHT22;8172;45.018;5.972;2023-02-28T16:37:52;1.30;69.80
16134;DHT22;8172;45.018;5.972;2023-02-28T16:43:00;1.20;69.90
16134;DHT22;8172;45.018;5.972;2023-02-28T16:48:12;1.10;70.10
16134;DHT22;8172;45.018;5.972;2023-02-28T16:53:19;1.10;70.20
16134;DHT22;8172;45.018;5.972;2023-02-28T16:58:26;1.00;70.40
16134;DHT22;8172;45.018;5.972;2023-02-28T17:03:33;0.90;70.50
16134;DHT22;8172;45.018;5.972;2023-02-28T17:08:42;0.80;70.70
16134;DHT22;8172;45.018;5.972;2023-02-28T17:13:49;0.80;70.70
16134;DHT22;8172;45.018;5.972;2023-02-28T17:18:59;0.80;70.90
16134;DHT22;8172;45.018;5.972;2023-02-28T17:24:06;0.80;70.90
16134;DHT22;8172;45.018;5.972;2023-02-28T17:29:15;0.90;70.80
16134;DHT22;8172;45.018;5.972;2023-02-28T17:34:22;0.90;70.60
16134;DHT22;8172;45.018;5.972;2023-02-28T17:39:29;0.90;70.50
16134;DHT22;8172;45.018;5.972;2023-02-28T17:44:36;0.90;70.40
16134;DHT22;8172;45.018;5.972;2023-02-28T17:49:43;0.90;70.20
16134;DHT22;8172;45.018;5.972;2023-02-28T17:54:50;0.80;70.00
16134;DHT22;8172;45.018;5.972;2023-02-28T17:59:57;0.80;69.90
16134;DHT22;8172;45.018;5.972;2023-02-28T18:05:04;0.80;69.90
16134;DHT22;8172;45.018;5.972;2023-02-28T18:10:16;0.80;69.80
16134;DHT22;8172;45.018;5.972;2023-02-28T18:15:23;0.80;69.80
16134;DHT22;8172;45.018;5.972;2023-02-28T18:20:30;0.80;69.90
16134;DHT22;8172;45.018;5.972;2023-02-28T18:25:38;0.70;70.20
16134;DHT22;8172;45.018;5.972;2023-02-28T18:30:46;0.70;70.40
16134;DHT22;8172;45.018;5.972;2023-02-28T18:35:55;0.60;70.50
16134;DHT22;8172;45.018;5.972;2023-02-28T18:41:04;0.60;70.50
16134;DHT22;8172;45.018;5.972;2023-02-28T18:46:14;0.60;70.80
16134;DHT22;8172;45.018;5.972;2023-02-28T18:51:24;0.50;70.90
16134;DHT22;8172;45.018;5.972;2023-02-28T18:56:31;0.50;71.00
16134;DHT22;8172;45.018;5.972;2023-02-28T19:01:38;0.50;71.10
16134;DHT22;8172;45.018;5.972;2023-02-28T19:06:45;0.40;71.20
16134;DHT22;8172;45.018;5.972;2023-02-28T19:11:52;0.50;71.20
16134;DHT22;8172;45.018;5.972;2023-02-28T19:16:59;0.50;71.30
16134;DHT22;8172;45.018;5.972;2023-02-28T19:22:06;0.50;71.20
16134;DHT22;8172;45.018;5.972;2023-02-28T19:27:13;0.50;71.30
16134;DHT22;8172;45.018;5.972;2023-02-28T19:32:22;0.40;71.40
16134;DHT22;8172;45.018;5.972;2023-02-28T19:37:29;0.40;71.20
16134;DHT22;8172;45.018;5.972;2023-02-28T19:42:36;0.40;71.10
16134;DHT22;8172;45.018;5.972;2023-02-28T19:47:43;0.40;71.00
16134;DHT22;8172;45.018;5.972;2023-02-28T19:52:50;0.40;71.00
16134;DHT22;8172;45.018;5.972;2023-02-28T19:57:57;0.40;71.00
16134;DHT22;8172;45.018;5.972;2023-02-28T20:03:04;0.40;71.00
16134;DHT22;8172;45.018;5.972;2023-02-28T20:08:11;0.40;70.90
16134;DHT22;8172;45.018;5.972;2023-02-28T20:13:18;0.40;71.00
16134;DHT22;8172;45.018;5.972;2023-02-28T20:18:27;0.40;71.00
16134;DHT22;8172;45.018;5.972;2023-02-28T20:23:35;0.40;71.00
16134;DHT22;8172;45.018;5.972;2023-02-28T20:28:42;0.40;71.10
16134;DHT22;8172;45.018;5.972;2023-02-28T20:33:50;0.40;71.10
16134;DHT22;8172;45.018;5.972;2023-02-28T20:38:57;0.30;71.20
16134;DHT22;8172;45.018;5.972;2023-02-28T20:44:05;0.30;71.10
16134;DHT22;8172;45.018;5.972;2023-02-28T20:49:12;0.20;71.10
16134;DHT22;8172;45.018;5.972;2023-02-28T20:54:20;0.10;71.20
16134;DHT22;8172;45.018;5.972;2023-02-28T20:59:27;0.10;71.30
16134;DHT22;8172;45.018;5.972;2023-02-28T21:04:35;0.10;71.40
16134;DHT22;8172;45.018;5.972;2023-02-28T21:09:42;0.00;71.40
16134;DHT22;8172;45.018;5.972;2023-02-28T21:14:49;0.00;71.60
16134;DHT22;8172;45.018;5.972;2023-02-28T21:19:56;0.00;71.80
16134;DHT22;8172;45.018;5.972;2023-02-28T21:25:03;-0.10;71.80
16134;DHT22;8172;45.018;5.972;2023-02-28T21:30:10;-0.10;71.80
16134;DHT22;8172;45.018;5.972;2023-02-28T21:35:17;-0.10;71.90
16134;DHT22;8172;45.018;5.972;2023-02-28T21:40:24;-0.20;71.90
16134;DHT22;8172;45.018;5.972;2023-02-28T21:45:33;-0.30;71.90
16134;DHT22;8172;45.018;5.972;2023-02-28T21:50:40;-0.30;71.90
16134;DHT22;8172;45.018;5.972;2023-02-28T21:55:47;-0.40;72.20
16134;DHT22;8172;45.018;5.972;2023-02-28T22:00:54;-0.40;72.30
16134;DHT22;8172;45.018;5.972;2023-02-28T22:06:07;-0.40;72.30
16134;DHT22;8172;45.018;5.972;2023-02-28T22:11:12;-0.50;72.40
16134;DHT22;8172;45.018;5.972;2023-02-28T22:16:20;-0.50;72.50
16134;DHT22;8172;45.018;5.972;2023-02-28T22:21:27;-0.50;72.60
16134;DHT22;8172;45.018;5.972;2023-02-28T22:26:35;-0.50;72.60
16134;DHT22;8172;45.018;5.972;2023-02-28T22:31:42;-0.50;72.60
16134;DHT22;8172;45.018;5.972;2023-02-28T22:36:49;-0.40;72.50
16134;DHT22;8172;45.018;5.972;2023-02-28T22:41:56;-0.40;72.40
16134;DHT22;8172;45.018;5.972;2023-02-28T22:47:03;-0.40;72.30
16134;DHT22;8172;45.018;5.972;2023-02-28T22:52:10;-0.30;72.10
16134;DHT22;8172;45.018;5.972;2023-02-28T22:57:17;-0.40;72.20
16134;DHT22;8172;45.018;5.972;2023-02-28T23:02:24;-0.30;72.20
16134;DHT22;8172;45.018;5.972;2023-02-28T23:07:31;-0.40;72.10
16134;DHT22;8172;45.018;5.972;2023-02-28T23:12:38;-0.40;72.10
16134;DHT22;8172;45.018;5.972;2023-02-28T23:17:48;-0.40;72.20
16134;DHT22;8172;45.018;5.972;2023-02-28T23:22:55;-0.40;72.10
16134;DHT22;8172;45.018;5.972;2023-02-28T23:28:02;-0.50;72.10
16134;DHT22;8172;45.018;5.972;2023-02-28T23:33:09;-0.50;72.20
16134;DHT22;8172;45.018;5.972;2023-02-28T23:38:16;-0.50;72.20
16134;DHT22;8172;45.018;5.972;2023-02-28T23:43:23;-0.60;72.30
16134;DHT22;8172;45.018;5.972;2023-02-28T23:48:31;-0.60;72.40
16134;DHT22;8172;45.018;5.972;2023-02-28T23:53:40;-0.60;72.50
16134;DHT22;8172;45.018;5.972;2023-02-28T23:58:49;-0.60;72.60
